sensor_id;sensor_type;location;lat;lon;timestamp;temperature;humidity
69776;DHT22;57049;51.450;-2.516;2024-01-16T00:01:26;-2.91;94.73
69776;DHT22;57049;51.450;-2.516;2024-01-16T00:03:51;-2.94;94.77
69776;DHT22;57049;51.450;-2.516;2024-01-16T00:06:16;-2.96;94.94
69776;DHT22;57049;51.450;-2.516;2024-01-16T00:08:42;-2.96;95.05
69776;DHT22;57049;51.450;-2.516;2024-01-16T00:11:07;-2.95;94.80
69776;DHT22;57049;51.450;-2.516;2024-01-16T00:13:33;-2.95;94.76
69776;DHT22;57049;51.450;-2.516;2024-01-16T00:15:58;-2.95;94.77
69776;DHT22;57049;51.450;-2.516;2024-01-16T00:18:24;-2.99;94.76
69776;DHT22;57049;51.450;-2.516;2024-01-16T00:20:49;-2.98;94.88
69776;DHT22;57049;51.450;-2.516;2024-01-16T00:23:15;-3.02;95.00
69776;DHT22;57049;51.450;-2.516;2024-01-16T00:25:40;-3.02;95.14
69776;DHT22;57049;51.450;-2.516;2024-01-16T00:28:07;-3.02;94.94
69776;DHT22;57049;51.450;-2.516;2024-01-16T00:30:32;-3.04;94.93
69776;DHT22;57049;51.450;-2.516;2024-01-16T00:32:58;-3.04;95.03
69776;DHT22;57049;51.450;-2.516;2024-01-16T00:35:24;-3.05;95.02
69776;DHT22;57049;51.450;-2.516;2024-01-16T00:37:50;-3.04;95.05
69776;DHT22;57049;51.450;-2.516;2024-01-16T00:40:15;-2.99;94.89
69776;DHT22;57049;51.450;-2.516;2024-01-16T00:42:41;-2.99;94.81
69776;DHT22;57049;51.450;-2.516;2024-01-16T00:45:07;-3.01;94.67
69776;DHT22;57049;51.450;-2.516;2024-01-16T00:47:32;-2.95;94.76
69776;DHT22;57049;51.450;-2.516;2024-01-16T00:49:58;-2.91;94.76
69776;DHT22;57049;51.450;-2.516;2024-01-16T00:52:26;-2.88;94.55
69776;DHT22;57049;51.450;-2.516;2024-01-16T00:54:51;-2.87;94.46
69776;DHT22;57049;51.450;-2.516;2024-01-16T00:57:17;-2.81;94.57
69776;DHT22;57049;51.450;-2.516;2024-01-16T00:59:47;-2.78;94.61
69776;DHT22;57049;51.450;-2.516;2024-01-16T01:02:14;-2.73;94.77
69776;DHT22;57049;51.450;-2.516;2024-01-16T01:04:39;-2.71;94.67
69776;DHT22;57049;51.450;-2.516;2024-01-16T01:07:07;-2.67;94.52
69776;DHT22;57049;51.450;-2.516;2024-01-16T01:09:33;-2.65;94.54
69776;DHT22;57049;51.450;-2.516;2024-01-16T01:11:58;-2.61;94.54
69776;DHT22;57049;51.450;-2.516;2024-01-16T01:14:24;-2.61;94.39
69776;DHT22;57049;51.450;-2.516;2024-01-16T01:16:51;-2.64;94.46
69776;DHT22;57049;51.450;-2.516;2024-01-16T01:19:16;-2.64;94.44
69776;DHT22;57049;51.450;-2.516;2024-01-16T01:21:42;-2.63;94.45
69776;DHT22;57049;51.450;-2.516;2024-01-16T01:24:07;-2.63;94.55
69776;DHT22;57049;51.450;-2.516;2024-01-16T01:26:34;-2.65;94.44
69776;DHT22;57049;51.450;-2.516;2024-01-16T01:28:59;-2.65;94.55
69776;DHT22;57049;51.450;-2.516;2024-01-16T01:31:25;-2.67;94.77
69776;DHT22;57049;51.450;-2.516;2024-01-16T01:33:50;-2.70;94.74
69776;DHT22;57049;51.450;-2.516;2024-01-16T01:36:16;-2.71;94.72
69776;DHT22;57049;51.450;-2.516;2024-01-16T01:38:41;-2.73;94.85
69776;DHT22;57049;51.450;-2.516;2024-01-16T01:41:07;-2.71;94.90
69776;DHT22;57049;51.450;-2.516;2024-01-16T01:43:32;-2.74;94.93
69776;DHT22;57049;51.450;-2.516;2024-01-16T01:46:16;-2.75;94.82
69776;DHT22;57049;51.450;-2.516;2024-01-16T01:48:43;-2.77;94.95
69776;DHT22;57049;51.450;-2.516;2024-01-16T01:51:10;-2.80;94.92
69776;DHT22;57049;51.450;-2.516;2024-01-16T01:53:38;-2.84;94.94
69776;DHT22;57049;51.450;-2.516;2024-01-16T01:56:04;-2.88;95.26
69776;DHT22;57049;51.450;-2.516;2024-01-16T01:58:34;-2.94;95.31
69776;DHT22;57049;51.450;-2.516;2024-01-16T02:01:01;-2.95;95.24
69776;DHT22;57049;51.450;-2.516;2024-01-16T02:03:29;-2.98;95.22
69776;DHT22;57049;51.450;-2.516;2024-01-16T02:05:55;-3.02;95.28
69776;DHT22;57049;51.450;-2.516;2024-01-16T02:08:22;-3.04;95.20
69776;DHT22;57049;51.450;-2.516;2024-01-16T02:10:49;-3.06;95.22
69776;DHT22;57049;51.450;-2.516;2024-01-16T02:13:15;-3.09;95.08
69776;DHT22;57049;51.450;-2.516;2024-01-16T02:15:40;-3.12;95.39
69776;DHT22;57049;51.450;-2.516;2024-01-16T02:18:07;-3.11;95.33
69776;DHT22;57049;51.450;-2.516;2024-01-16T02:20:32;-3.16;95.42
69776;DHT22;57049;51.450;-2.516;2024-01-16T02:23:00;-3.15;95.48
69776;DHT22;57049;51.450;-2.516;2024-01-16T02:25:28;-3.16;95.72
69776;DHT22;57049;51.450;-2.516;2024-01-16T02:27:54;-3.15;95.72
69776;DHT22;57049;51.450;-2.516;2024-01-16T02:30:20;-3.17;95.95
69776;DHT22;57049;51.450;-2.516;2024-01-16T02:32:45;-3.16;95.79
69776;DHT22;57049;51.450;-2.516;2024-01-16T02:35:10;-3.16;95.69
69776;DHT22;57049;51.450;-2.516;2024-01-16T02:37:36;-3.17;95.55
69776;DHT22;57049;51.450;-2.516;2024-01-16T02:40:02;-3.17;95.60
69776;DHT22;57049;51.450;-2.516;2024-01-16T02:42:32;-3.16;95.64
69776;DHT22;57049;51.450;-2.516;2024-01-16T02:44:57;-3.08;95.77
69776;DHT22;57049;51.450;-2.516;2024-01-16T02:47:23;-3.02;95.40
69776;DHT22;57049;51.450;-2.516;2024-01-16T02:49:48;-2.98;95.41
69776;DHT22;57049;51.450;-2.516;2024-01-16T02:52:13;-2.95;95.48
69776;DHT22;57049;51.450;-2.516;2024-01-16T02:54:40;-2.92;95.36
69776;DHT22;57049;51.450;-2.516;2024-01-16T02:57:05;-2.85;95.23
69776;DHT22;57049;51.450;-2.516;2024-01-16T02:59:31;-2.85;95.21
69776;DHT22;57049;51.450;-2.516;2024-01-16T03:01:56;-2.78;95.14
69776;DHT22;57049;51.450;-2.516;2024-01-16T03:04:22;-2.70;95.23
69776;DHT22;57049;51.450;-2.516;2024-01-16T03:06:47;-2.64;95.22
69776;DHT22;57049;51.450;-2.516;2024-01-16T03:09:13;-2.54;95.11
69776;DHT22;57049;51.450;-2.516;2024-01-16T03:11:38;-2.49;94.57
69776;DHT22;57049;51.450;-2.516;2024-01-16T03:14:05;-2.43;94.62
69776;DHT22;57049;51.450;-2.516;2024-01-16T03:16:31;-2.33;94.69
69776;DHT22;57049;51.450;-2.516;2024-01-16T03:18:57;-2.26;94.42
69776;DHT22;57049;51.450;-2.516;2024-01-16T03:21:22;-2.20;94.10
69776;DHT22;57049;51.450;-2.516;2024-01-16T03:23:48;-2.13;94.18
69776;DHT22;57049;51.450;-2.516;2024-01-16T03:26:14;-2.09;93.80
69776;DHT22;57049;51.450;-2.516;2024-01-16T03:28:40;-2.09;93.68
69776;DHT22;57049;51.450;-2.516;2024-01-16T03:31:06;-2.07;93.70
69776;DHT22;57049;51.450;-2.516;2024-01-16T03:33:31;-2.03;93.76
69776;DHT22;57049;51.450;-2.516;2024-01-16T03:35:57;-2.05;93.94
69776;DHT22;57049;51.450;-2.516;2024-01-16T03:38:23;-2.00;93.98
69776;DHT22;57049;51.450;-2.516;2024-01-16T03:40:48;-1.99;93.63
69776;DHT22;57049;51.450;-2.516;2024-01-16T03:43:13;-1.92;92.88
69776;DHT22;57049;51.450;-2.516;2024-01-16T03:45:39;-1.96;92.77
69776;DHT22;57049;51.450;-2.516;2024-01-16T03:48:05;-1.90;92.97
69776;DHT22;57049;51.450;-2.516;2024-01-16T03:50:30;-1.92;92.39
69776;DHT22;57049;51.450;-2.516;2024-01-16T03:52:56;-1.95;92.53
69776;DHT22;57049;51.450;-2.516;2024-01-16T03:55:21;-2.00;92.75
69776;DHT22;57049;51.450;-2.516;2024-01-16T03:57:46;-2.03;92.96
69776;DHT22;57049;51.450;-2.516;2024-01-16T04:00:12;-2.10;93.12
69776;DHT22;57049;51.450;-2.516;2024-01-16T04:02:39;-2.12;93.16
69776;DHT22;57049;51.450;-2.516;2024-01-16T04:05:04;-2.12;93.21
69776;DHT22;57049;51.450;-2.516;2024-01-16T04:07:30;-2.10;93.23
69776;DHT22;57049;51.450;-2.516;2024-01-16T04:09:56;-2.09;93.10
69776;DHT22;57049;51.450;-2.516;2024-01-16T04:12:22;-1.99;92.77
69776;DHT22;57049;51.450;-2.516;2024-01-16T04:14:47;-1.95;92.43
69776;DHT22;57049;51.450;-2.516;2024-01-16T04:17:12;-1.88;92.46
69776;DHT22;57049;51.450;-2.516;2024-01-16T04:19:38;-1.79;92.31
69776;DHT22;57049;51.450;-2.516;2024-01-16T04:22:04;-1.78;92.03
69776;DHT22;57049;51.450;-2.516;2024-01-16T04:24:30;-1.78;91.99
69776;DHT22;57049;51.450;-2.516;2024-01-16T04:26:56;-1.72;91.73
69776;DHT22;57049;51.450;-2.516;2024-01-16T04:29:21;-1.75;91.60
69776;DHT22;57049;51.450;-2.516;2024-01-16T04:31:47;-1.79;91.56
69776;DHT22;57049;51.450;-2.516;2024-01-16T04:34:13;-1.77;91.68
69776;DHT22;57049;51.450;-2.516;2024-01-16T04:36:38;-1.75;91.65
69776;DHT22;57049;51.450;-2.516;2024-01-16T04:39:03;-1.75;91.65
69776;DHT22;57049;51.450;-2.516;2024-01-16T04:41:29;-1.74;91.40
69776;DHT22;57049;51.450;-2.516;2024-01-16T04:43:55;-1.69;91.09
69776;DHT22;57049;51.450;-2.516;2024-01-16T04:46:20;-1.67;90.83
69776;DHT22;57049;51.450;-2.516;2024-01-16T04:48:46;-1.61;90.71
69776;DHT22;57049;51.450;-2.516;2024-01-16T04:51:11;-1.58;90.70
69776;DHT22;57049;51.450;-2.516;2024-01-16T04:53:37;-1.52;90.55
69776;DHT22;57049;51.450;-2.516;2024-01-16T04:56:02;-1.50;90.42
69776;DHT22;57049;51.450;-2.516;2024-01-16T04:58:28;-1.54;90.24
69776;DHT22;57049;51.450;-2.516;2024-01-16T05:00:53;-1.52;90.34
69776;DHT22;57049;51.450;-2.516;2024-01-16T05:03:19;-1.52;90.29
69776;DHT22;57049;51.450;-2.516;2024-01-16T05:05:45;-1.52;90.34
69776;DHT22;57049;51.450;-2.516;2024-01-16T05:08:10;-1.54;90.34
69776;DHT22;57049;51.450;-2.516;2024-01-16T05:10:36;-1.54;90.38
69776;DHT22;57049;51.450;-2.516;2024-01-16T05:13:01;-1.57;90.55
69776;DHT22;57049;51.450;-2.516;2024-01-16T05:15:27;-1.59;90.65
69776;DHT22;57049;51.450;-2.516;2024-01-16T05:17:52;-1.58;90.63
69776;DHT22;57049;51.450;-2.516;2024-01-16T05:20:18;-1.57;90.55
69776;DHT22;57049;51.450;-2.516;2024-01-16T05:22:44;-1.57;90.47
69776;DHT22;57049;51.450;-2.516;2024-01-16T05:25:09;-1.57;90.58
69776;DHT22;57049;51.450;-2.516;2024-01-16T05:27:35;-1.54;90.66
69776;DHT22;57049;51.450;-2.516;2024-01-16T05:30:00;-1.54;90.58
69776;DHT22;57049;51.450;-2.516;2024-01-16T05:32:26;-1.51;90.41
69776;DHT22;57049;51.450;-2.516;2024-01-16T05:34:52;-1.52;90.28
69776;DHT22;57049;51.450;-2.516;2024-01-16T05:37:18;-1.48;90.22
69776;DHT22;57049;51.450;-2.516;2024-01-16T05:39:44;-1.48;90.13
69776;DHT22;57049;51.450;-2.516;2024-01-16T05:42:11;-1.47;90.08
69776;DHT22;57049;51.450;-2.516;2024-01-16T05:44:37;-1.43;89.99
69776;DHT22;57049;51.450;-2.516;2024-01-16T05:47:03;-1.40;90.08
69776;DHT22;57049;51.450;-2.516;2024-01-16T05:49:28;-1.46;90.24
69776;DHT22;57049;51.450;-2.516;2024-01-16T05:51:54;-1.41;90.21
69776;DHT22;57049;51.450;-2.516;2024-01-16T05:54:19;-1.41;90.21
69776;DHT22;57049;51.450;-2.516;2024-01-16T05:56:45;-1.40;90.30
69776;DHT22;57049;51.450;-2.516;2024-01-16T05:59:10;-1.40;90.34
69776;DHT22;57049;51.450;-2.516;2024-01-16T06:01:36;-1.38;90.30
69776;DHT22;57049;51.450;-2.516;2024-01-16T06:04:03;-1.41;90.29
69776;DHT22;57049;51.450;-2.516;2024-01-16T06:06:28;-1.37;90.36
69776;DHT22;57049;51.450;-2.516;2024-01-16T06:08:55;-1.37;90.38
69776;DHT22;57049;51.450;-2.516;2024-01-16T06:11:30;-1.36;90.55
69776;DHT22;57049;51.450;-2.516;2024-01-16T06:13:55;-1.34;90.50
69776;DHT22;57049;51.450;-2.516;2024-01-16T06:16:21;-1.33;90.59
69776;DHT22;57049;51.450;-2.516;2024-01-16T06:18:46;-1.33;90.26
69776;DHT22;57049;51.450;-2.516;2024-01-16T06:21:12;-1.30;90.45
69776;DHT22;57049;51.450;-2.516;2024-01-16T06:23:37;-1.28;90.41
69776;DHT22;57049;51.450;-2.516;2024-01-16T06:26:03;-1.24;90.78
69776;DHT22;57049;51.450;-2.516;2024-01-16T06:28:30;-1.24;91.10
69776;DHT22;57049;51.450;-2.516;2024-01-16T06:30:55;-1.21;91.09
69776;DHT22;57049;51.450;-2.516;2024-01-16T06:33:21;-1.20;91.09
69776;DHT22;57049;51.450;-2.516;2024-01-16T06:35:46;-1.16;91.00
69776;DHT22;57049;51.450;-2.516;2024-01-16T06:38:11;-1.13;90.75
69776;DHT22;57049;51.450;-2.516;2024-01-16T06:40:37;-1.07;90.69
69776;DHT22;57049;51.450;-2.516;2024-01-16T06:43:03;-1.01;90.30
69776;DHT22;57049;51.450;-2.516;2024-01-16T06:45:28;-0.93;89.55
69776;DHT22;57049;51.450;-2.516;2024-01-16T06:47:54;-0.86;89.30
69776;DHT22;57049;51.450;-2.516;2024-01-16T06:50:20;-0.85;89.28
69776;DHT22;57049;51.450;-2.516;2024-01-16T06:52:45;-0.82;89.35
69776;DHT22;57049;51.450;-2.516;2024-01-16T06:55:11;-0.80;89.45
69776;DHT22;57049;51.450;-2.516;2024-01-16T06:57:36;-0.82;89.61
69776;DHT22;57049;51.450;-2.516;2024-01-16T07:00:02;-0.82;89.67
69776;DHT22;57049;51.450;-2.516;2024-01-16T07:02:28;-0.82;89.66
69776;DHT22;57049;51.450;-2.516;2024-01-16T07:04:53;-0.79;89.75
69776;DHT22;57049;51.450;-2.516;2024-01-16T07:07:19;-0.80;89.73
69776;DHT22;57049;51.450;-2.516;2024-01-16T07:09:45;-0.75;89.90
69776;DHT22;57049;51.450;-2.516;2024-01-16T07:12:11;-0.75;89.78
69776;DHT22;57049;51.450;-2.516;2024-01-16T07:14:36;-0.73;89.75
69776;DHT22;57049;51.450;-2.516;2024-01-16T07:17:03;-0.72;89.77
69776;DHT22;57049;51.450;-2.516;2024-01-16T07:19:28;-0.73;89.74
69776;DHT22;57049;51.450;-2.516;2024-01-16T07:21:54;-0.66;89.60
69776;DHT22;57049;51.450;-2.516;2024-01-16T07:24:20;-0.64;89.50
69776;DHT22;57049;51.450;-2.516;2024-01-16T07:26:45;-0.61;89.57
69776;DHT22;57049;51.450;-2.516;2024-01-16T07:29:10;-0.62;89.54
69776;DHT22;57049;51.450;-2.516;2024-01-16T07:31:36;-0.62;89.63
69776;DHT22;57049;51.450;-2.516;2024-01-16T07:34:01;-0.62;89.82
69776;DHT22;57049;51.450;-2.516;2024-01-16T07:36:27;-0.61;89.85
69776;DHT22;57049;51.450;-2.516;2024-01-16T07:38:52;-0.65;89.82
69776;DHT22;57049;51.450;-2.516;2024-01-16T07:41:18;-0.68;90.26
69776;DHT22;57049;51.450;-2.516;2024-01-16T07:43:43;-0.68;90.22
69776;DHT22;57049;51.450;-2.516;2024-01-16T07:46:09;-0.70;90.41
69776;DHT22;57049;51.450;-2.516;2024-01-16T07:48:34;-0.69;90.39
69776;DHT22;57049;51.450;-2.516;2024-01-16T07:50:59;-0.73;90.41
69776;DHT22;57049;51.450;-2.516;2024-01-16T07:53:25;-0.75;90.60
69776;DHT22;57049;51.450;-2.516;2024-01-16T07:55:53;-0.76;90.65
69776;DHT22;57049;51.450;-2.516;2024-01-16T07:58:19;-0.80;90.62
69776;DHT22;57049;51.450;-2.516;2024-01-16T08:00:45;-0.85;90.87
69776;DHT22;57049;51.450;-2.516;2024-01-16T08:03:11;-0.89;90.97
69776;DHT22;57049;51.450;-2.516;2024-01-16T08:05:37;-0.92;91.14
69776;DHT22;57049;51.450;-2.516;2024-01-16T08:08:08;-0.95;91.30
69776;DHT22;57049;51.450;-2.516;2024-01-16T08:10:34;-0.99;91.45
69776;DHT22;57049;51.450;-2.516;2024-01-16T08:13:00;-1.03;91.54
69776;DHT22;57049;51.450;-2.516;2024-01-16T08:15:25;-1.14;91.72
69776;DHT22;57049;51.450;-2.516;2024-01-16T08:17:51;-1.21;91.95
69776;DHT22;57049;51.450;-2.516;2024-01-16T08:20:16;-1.30;92.21
69776;DHT22;57049;51.450;-2.516;2024-01-16T08:22:42;-1.37;92.30
69776;DHT22;57049;51.450;-2.516;2024-01-16T08:25:07;-1.50;92.66
69776;DHT22;57049;51.450;-2.516;2024-01-16T08:27:33;-1.57;92.93
69776;DHT22;57049;51.450;-2.516;2024-01-16T08:29:59;-1.57;93.28
69776;DHT22;57049;51.450;-2.516;2024-01-16T08:32:24;-1.58;93.37
69776;DHT22;57049;51.450;-2.516;2024-01-16T08:34:50;-1.61;93.44
69776;DHT22;57049;51.450;-2.516;2024-01-16T08:37:16;-1.65;93.47
69776;DHT22;57049;51.450;-2.516;2024-01-16T08:39:41;-1.68;93.66
69776;DHT22;57049;51.450;-2.516;2024-01-16T08:42:07;-1.71;93.64
69776;DHT22;57049;51.450;-2.516;2024-01-16T08:44:33;-1.72;93.80
69776;DHT22;57049;51.450;-2.516;2024-01-16T08:46:59;-1.72;94.29
69776;DHT22;57049;51.450;-2.516;2024-01-16T08:49:26;-1.72;94.18
69776;DHT22;57049;51.450;-2.516;2024-01-16T08:51:51;-1.72;94.29
69776;DHT22;57049;51.450;-2.516;2024-01-16T08:54:17;-1.77;94.36
69776;DHT22;57049;51.450;-2.516;2024-01-16T08:56:42;-1.77;94.51
69776;DHT22;57049;51.450;-2.516;2024-01-16T08:59:07;-1.77;94.73
69776;DHT22;57049;51.450;-2.516;2024-01-16T09:01:35;-1.75;94.85
69776;DHT22;57049;51.450;-2.516;2024-01-16T09:04:00;-1.71;94.77
69776;DHT22;57049;51.450;-2.516;2024-01-16T09:06:26;-1.69;94.72
69776;DHT22;57049;51.450;-2.516;2024-01-16T09:08:51;-1.69;94.56
69776;DHT22;57049;51.450;-2.516;2024-01-16T09:11:17;-1.64;94.69
69776;DHT22;57049;51.450;-2.516;2024-01-16T09:13:42;-1.58;94.43
69776;DHT22;57049;51.450;-2.516;2024-01-16T09:16:08;-1.51;94.26
69776;DHT22;57049;51.450;-2.516;2024-01-16T09:18:34;-1.47;94.18
69776;DHT22;57049;51.450;-2.516;2024-01-16T09:21:00;-1.34;94.16
69776;DHT22;57049;51.450;-2.516;2024-01-16T09:23:25;-1.26;93.94
69776;DHT22;57049;51.450;-2.516;2024-01-16T09:25:51;-1.17;93.53
69776;DHT22;57049;51.450;-2.516;2024-01-16T09:28:16;-1.03;93.52
69776;DHT22;57049;51.450;-2.516;2024-01-16T09:30:42;-0.97;92.94
69776;DHT22;57049;51.450;-2.516;2024-01-16T09:33:07;-0.90;92.78
69776;DHT22;57049;51.450;-2.516;2024-01-16T09:35:35;-0.87;92.44
69776;DHT22;57049;51.450;-2.516;2024-01-16T09:38:01;-0.85;92.55
69776;DHT22;57049;51.450;-2.516;2024-01-16T09:40:26;-0.77;92.49
69776;DHT22;57049;51.450;-2.516;2024-01-16T09:42:52;-0.72;92.59
69776;DHT22;57049;51.450;-2.516;2024-01-16T09:45:20;-0.54;92.45
69776;DHT22;57049;51.450;-2.516;2024-01-16T09:47:50;-0.39;92.07
69776;DHT22;57049;51.450;-2.516;2024-01-16T09:50:16;-0.32;91.58
69776;DHT22;57049;51.450;-2.516;2024-01-16T09:52:46;-0.26;91.11
69776;DHT22;57049;51.450;-2.516;2024-01-16T09:55:12;-0.25;91.14
69776;DHT22;57049;51.450;-2.516;2024-01-16T09:57:39;-0.17;90.85
69776;DHT22;57049;51.450;-2.516;2024-01-16T10:00:09;-0.01;90.55
69776;DHT22;57049;51.450;-2.516;2024-01-16T10:02:39;0.05;90.38
69776;DHT22;57049;51.450;-2.516;2024-01-16T10:05:06;0.10;89.96
69776;DHT22;57049;51.450;-2.516;2024-01-16T10:07:34;0.17;89.75
69776;DHT22;57049;51.450;-2.516;2024-01-16T10:10:00;0.20;89.59
69776;DHT22;57049;51.450;-2.516;2024-01-16T10:12:25;0.27;89.87
69776;DHT22;57049;51.450;-2.516;2024-01-16T10:14:51;0.34;89.42
69776;DHT22;57049;51.450;-2.516;2024-01-16T10:17:17;0.41;89.13
69776;DHT22;57049;51.450;-2.516;2024-01-16T10:19:51;0.41;89.28
69776;DHT22;57049;51.450;-2.516;2024-01-16T10:22:20;0.44;89.37
69776;DHT22;57049;51.450;-2.516;2024-01-16T10:24:47;0.50;89.43
69776;DHT22;57049;51.450;-2.516;2024-01-16T10:27:15;0.53;89.25
69776;DHT22;57049;51.450;-2.516;2024-01-16T10:29:55;0.64;88.97
69776;DHT22;57049;51.450;-2.516;2024-01-16T10:32:28;0.71;88.41
69776;DHT22;57049;51.450;-2.516;2024-01-16T10:35:06;0.82;88.53
69776;DHT22;57049;51.450;-2.516;2024-01-16T10:37:55;0.91;87.83
69776;DHT22;57049;51.450;-2.516;2024-01-16T10:40:24;1.01;87.69
69776;DHT22;57049;51.450;-2.516;2024-01-16T10:43:03;1.09;87.24
69776;DHT22;57049;51.450;-2.516;2024-01-16T10:45:30;1.09;87.50
69776;DHT22;57049;51.450;-2.516;2024-01-16T10:48:03;1.13;87.56
69776;DHT22;57049;51.450;-2.516;2024-01-16T10:50:29;1.21;87.49
69776;DHT22;57049;51.450;-2.516;2024-01-16T10:52:55;1.31;87.19
69776;DHT22;57049;51.450;-2.516;2024-01-16T10:55:24;1.33;87.12
69776;DHT22;57049;51.450;-2.516;2024-01-16T10:57:50;1.39;87.01
69776;DHT22;57049;51.450;-2.516;2024-01-16T11:00:20;1.42;87.08
69776;DHT22;57049;51.450;-2.516;2024-01-16T11:02:59;1.50;87.07
69776;DHT22;57049;51.450;-2.516;2024-01-16T11:05:28;1.57;86.75
69776;DHT22;57049;51.450;-2.516;2024-01-16T11:07:58;1.67;86.93
69776;DHT22;57049;51.450;-2.516;2024-01-16T11:10:27;1.84;86.60
69776;DHT22;57049;51.450;-2.516;2024-01-16T11:12:53;1.95;86.54
69776;DHT22;57049;51.450;-2.516;2024-01-16T11:15:19;2.15;86.18
69776;DHT22;57049;51.450;-2.516;2024-01-16T11:17:45;2.36;85.88
69776;DHT22;57049;51.450;-2.516;2024-01-16T11:20:12;2.58;85.07
69776;DHT22;57049;51.450;-2.516;2024-01-16T11:22:41;2.69;84.47
69776;DHT22;57049;51.450;-2.516;2024-01-16T11:25:11;2.77;84.44
69776;DHT22;57049;51.450;-2.516;2024-01-16T11:27:40;2.79;84.01
69776;DHT22;57049;51.450;-2.516;2024-01-16T11:30:10;2.79;83.39
69776;DHT22;57049;51.450;-2.516;2024-01-16T11:32:40;2.76;82.91
69776;DHT22;57049;51.450;-2.516;2024-01-16T11:35:08;2.66;82.86
69776;DHT22;57049;51.450;-2.516;2024-01-16T11:37:35;2.63;82.94
69776;DHT22;57049;51.450;-2.516;2024-01-16T11:42:48;2.77;82.63
69776;DHT22;57049;51.450;-2.516;2024-01-16T11:48:15;3.07;79.09
69776;DHT22;57049;51.450;-2.516;2024-01-16T11:50:42;3.06;78.74
69776;DHT22;57049;51.450;-2.516;2024-01-16T11:53:08;2.99;78.79
69776;DHT22;57049;51.450;-2.516;2024-01-16T11:55:35;3.04;77.81
69776;DHT22;57049;51.450;-2.516;2024-01-16T12:00:51;3.14;76.94
69776;DHT22;57049;51.450;-2.516;2024-01-16T12:03:20;3.24;75.79
69776;DHT22;57049;51.450;-2.516;2024-01-16T12:05:56;3.51;75.02
69776;DHT22;57049;51.450;-2.516;2024-01-16T12:08:22;3.72;74.35
69776;DHT22;57049;51.450;-2.516;2024-01-16T12:10:47;3.86;73.35
69776;DHT22;57049;51.450;-2.516;2024-01-16T12:13:13;4.02;72.84
69776;DHT22;57049;51.450;-2.516;2024-01-16T12:15:39;4.20;71.88
69776;DHT22;57049;51.450;-2.516;2024-01-16T12:18:04;4.30;71.22
69776;DHT22;57049;51.450;-2.516;2024-01-16T12:20:35;4.46;70.78
69776;DHT22;57049;51.450;-2.516;2024-01-16T12:25:27;4.67;71.03
69776;DHT22;57049;51.450;-2.516;2024-01-16T12:28:06;4.65;69.81
69776;DHT22;57049;51.450;-2.516;2024-01-16T12:30:32;4.58;69.18
69776;DHT22;57049;51.450;-2.516;2024-01-16T12:35:36;4.52;69.28
69776;DHT22;57049;51.450;-2.516;2024-01-16T12:38:06;4.54;68.88
69776;DHT22;57049;51.450;-2.516;2024-01-16T12:40:35;4.52;69.25
69776;DHT22;57049;51.450;-2.516;2024-01-16T12:43:02;4.57;68.84
69776;DHT22;57049;51.450;-2.516;2024-01-16T12:45:28;4.64;68.48
69776;DHT22;57049;51.450;-2.516;2024-01-16T12:47:54;4.68;69.01
69776;DHT22;57049;51.450;-2.516;2024-01-16T12:50:25;4.77;67.57
69776;DHT22;57049;51.450;-2.516;2024-01-16T12:53:07;4.81;67.26
69776;DHT22;57049;51.450;-2.516;2024-01-16T12:55:34;4.83;67.24
69776;DHT22;57049;51.450;-2.516;2024-01-16T12:58:22;4.77;67.30
69776;DHT22;57049;51.450;-2.516;2024-01-16T13:00:54;4.80;66.85
69776;DHT22;57049;51.450;-2.516;2024-01-16T13:03:24;4.83;66.10
69776;DHT22;57049;51.450;-2.516;2024-01-16T13:05:58;4.84;65.54
69776;DHT22;57049;51.450;-2.516;2024-01-16T13:08:25;4.88;65.79
69776;DHT22;57049;51.450;-2.516;2024-01-16T13:13:28;4.87;64.20
69776;DHT22;57049;51.450;-2.516;2024-01-16T13:15:54;4.91;65.13
69776;DHT22;57049;51.450;-2.516;2024-01-16T13:18:24;4.92;65.09
69776;DHT22;57049;51.450;-2.516;2024-01-16T13:20:51;4.95;64.80
69776;DHT22;57049;51.450;-2.516;2024-01-16T13:23:17;5.05;64.53
69776;DHT22;57049;51.450;-2.516;2024-01-16T13:25:44;4.99;65.00
69776;DHT22;57049;51.450;-2.516;2024-01-16T13:28:14;4.96;64.72
69776;DHT22;57049;51.450;-2.516;2024-01-16T13:30:40;4.88;64.52
69776;DHT22;57049;51.450;-2.516;2024-01-16T13:33:06;4.85;65.29
69776;DHT22;57049;51.450;-2.516;2024-01-16T13:35:38;4.88;65.63
69776;DHT22;57049;51.450;-2.516;2024-01-16T13:38:05;4.92;65.17
69776;DHT22;57049;51.450;-2.516;2024-01-16T13:40:31;4.92;65.37
69776;DHT22;57049;51.450;-2.516;2024-01-16T13:42:57;4.95;65.17
69776;DHT22;57049;51.450;-2.516;2024-01-16T13:45:22;4.94;64.08
69776;DHT22;57049;51.450;-2.516;2024-01-16T13:47:48;4.95;64.11
69776;DHT22;57049;51.450;-2.516;2024-01-16T13:50:14;4.95;65.30
69776;DHT22;57049;51.450;-2.516;2024-01-16T13:52:39;4.99;65.62
69776;DHT22;57049;51.450;-2.516;2024-01-16T13:55:06;4.95;64.80
69776;DHT22;57049;51.450;-2.516;2024-01-16T13:57:32;4.96;65.11
69776;DHT22;57049;51.450;-2.516;2024-01-16T14:00:00;4.94;66.09
69776;DHT22;57049;51.450;-2.516;2024-01-16T14:02:25;4.89;66.33
69776;DHT22;57049;51.450;-2.516;2024-01-16T14:04:51;4.87;66.87
69776;DHT22;57049;51.450;-2.516;2024-01-16T14:07:19;4.88;67.01
69776;DHT22;57049;51.450;-2.516;2024-01-16T14:09:45;4.84;67.17
69776;DHT22;57049;51.450;-2.516;2024-01-16T14:12:14;4.80;67.82
69776;DHT22;57049;51.450;-2.516;2024-01-16T14:14:40;4.80;68.06
69776;DHT22;57049;51.450;-2.516;2024-01-16T14:17:06;4.84;68.26
69776;DHT22;57049;51.450;-2.516;2024-01-16T14:19:34;4.77;68.54
69776;DHT22;57049;51.450;-2.516;2024-01-16T14:22:00;4.75;68.82
69776;DHT22;57049;51.450;-2.516;2024-01-16T14:24:25;4.77;69.29
69776;DHT22;57049;51.450;-2.516;2024-01-16T14:26:51;4.77;69.70
69776;DHT22;57049;51.450;-2.516;2024-01-16T14:29:16;4.78;69.77
69776;DHT22;57049;51.450;-2.516;2024-01-16T14:31:42;4.74;70.01
69776;DHT22;57049;51.450;-2.516;2024-01-16T14:34:11;4.73;69.71
69776;DHT22;57049;51.450;-2.516;2024-01-16T14:36:39;4.65;69.62
69776;DHT22;57049;51.450;-2.516;2024-01-16T14:39:05;4.64;70.17
69776;DHT22;57049;51.450;-2.516;2024-01-16T14:41:31;4.63;70.76
69776;DHT22;57049;51.450;-2.516;2024-01-16T14:43:57;4.64;70.61
69776;DHT22;57049;51.450;-2.516;2024-01-16T14:46:23;4.57;71.22
69776;DHT22;57049;51.450;-2.516;2024-01-16T14:48:48;4.52;71.13
69776;DHT22;57049;51.450;-2.516;2024-01-16T14:51:14;4.54;71.10
69776;DHT22;57049;51.450;-2.516;2024-01-16T14:53:39;4.56;71.34
69776;DHT22;57049;51.450;-2.516;2024-01-16T14:56:05;4.49;71.00
69776;DHT22;57049;51.450;-2.516;2024-01-16T14:58:31;4.49;71.15
69776;DHT22;57049;51.450;-2.516;2024-01-16T15:00:57;4.49;71.46
69776;DHT22;57049;51.450;-2.516;2024-01-16T15:03:24;4.40;71.43
69776;DHT22;57049;51.450;-2.516;2024-01-16T15:05:50;4.36;71.36
69776;DHT22;57049;51.450;-2.516;2024-01-16T15:08:20;4.32;72.03
69776;DHT22;57049;51.450;-2.516;2024-01-16T15:10:46;4.23;72.55
69776;DHT22;57049;51.450;-2.516;2024-01-16T15:13:11;4.22;72.76
69776;DHT22;57049;51.450;-2.516;2024-01-16T15:15:37;4.16;73.17
69776;DHT22;57049;51.450;-2.516;2024-01-16T15:18:03;4.12;73.36
69776;DHT22;57049;51.450;-2.516;2024-01-16T15:20:28;4.13;73.27
69776;DHT22;57049;51.450;-2.516;2024-01-16T15:22:54;4.07;73.76
69776;DHT22;57049;51.450;-2.516;2024-01-16T15:25:20;4.05;74.05
69776;DHT22;57049;51.450;-2.516;2024-01-16T15:27:53;4.02;73.92
69776;DHT22;57049;51.450;-2.516;2024-01-16T15:30:20;3.92;74.59
69776;DHT22;57049;51.450;-2.516;2024-01-16T15:32:49;3.93;74.70